createdAt,value
2022-12-23T00:03:33.142Z,1.90
2022-12-23T00:07:15.169Z,1.65
2022-12-23T00:10:59.537Z,1.80
2022-12-23T00:15:01.099Z,1.60
2022-12-23T00:18:44.893Z,1.77
2022-12-23T00:22:46.603Z,1.80
2022-12-23T00:26:29.441Z,2.25
2022-12-23T00:30:14.552Z,2.00
2022-12-23T00:33:56.685Z,2.10
2022-12-23T00:37:38.942Z,1.60
2022-12-23T00:41:39.091Z,2.22
2022-12-23T00:45:22.199Z,1.75
2022-12-23T00:49:29.028Z,2.70
2022-12-23T00:53:20.575Z,2.75
2022-12-23T00:57:03.195Z,2.53
2022-12-23T01:01:04.792Z,2.50
2022-12-23T01:05:05.513Z,2.50
2022-12-23T01:08:47.979Z,2.65
2022-12-23T01:12:29.756Z,2.87
2022-12-23T01:16:17.294Z,2.45
2022-12-23T01:19:59.581Z,2.65
2022-12-23T01:23:44.485Z,2.47
2022-12-23T01:27:26.303Z,2.53
2022-12-23T01:31:10.730Z,2.20
2022-12-23T01:34:52.444Z,2.35
2022-12-23T01:38:37.416Z,2.30
2022-12-23T01:42:40.276Z,1.90
2022-12-23T01:46:22.441Z,1.95
2022-12-23T01:50:30.752Z,2.40
2022-12-23T01:54:12.471Z,1.85
2022-12-23T01:57:57.583Z,1.95
2022-12-23T02:01:58.056Z,2.20
2022-12-23T02:05:40.908Z,2.17
2022-12-23T02:09:27.204Z,1.90
2022-12-23T02:13:16.203Z,2.70
2022-12-23T02:17:25.190Z,1.92
2022-12-23T02:21:12.711Z,1.80
2022-12-23T02:25:04.201Z,1.80
2022-12-23T02:29:07.022Z,1.77
2022-12-23T02:33:07.760Z,1.90
2022-12-23T02:37:17.468Z,1.90
2022-12-23T02:41:10.107Z,1.75
2022-12-23T02:45:21.675Z,1.63
2022-12-23T02:49:15.196Z,1.48
2022-12-23T02:56:45.263Z,2.40
2022-12-23T03:00:27.257Z,2.00
2022-12-23T03:04:09.224Z,1.88
2022-12-23T03:07:54.610Z,1.90
2022-12-23T03:12:02.735Z,1.55
2022-12-23T03:15:49.035Z,1.52
2022-12-23T03:19:43.727Z,1.70
2022-12-23T03:23:55.915Z,2.00
2022-12-23T03:27:45.222Z,1.63
2022-12-23T03:31:30.020Z,1.70
2022-12-23T03:35:17.660Z,1.70
2022-12-23T03:39:01.998Z,2.13
2022-12-23T03:42:56.918Z,1.63
2022-12-23T03:46:43.677Z,1.80
2022-12-23T03:50:26.089Z,1.80
2022-12-23T03:54:12.135Z,1.80
2022-12-23T03:58:04.681Z,1.52
2022-12-23T04:02:08.144Z,1.73
2022-12-23T04:05:57.379Z,1.60
2022-12-23T04:09:39.604Z,1.75
2022-12-23T04:13:21.307Z,1.80
2022-12-23T04:17:03.060Z,1.70
2022-12-23T04:20:44.845Z,1.85
2022-12-23T04:24:26.538Z,2.00
2022-12-23T04:28:08.255Z,1.83
2022-12-23T04:31:50.005Z,2.47
2022-12-23T04:35:31.775Z,2.10
2022-12-23T04:39:13.600Z,2.15
2022-12-23T04:42:55.388Z,1.92
2022-12-23T04:46:37.247Z,1.95
2022-12-23T04:50:19.115Z,1.83
2022-12-23T04:54:00.896Z,2.03
2022-12-23T04:57:42.692Z,1.95
2022-12-23T05:01:24.440Z,2.10
2022-12-23T05:05:06.532Z,1.92
2022-12-23T05:08:48.245Z,2.20
2022-12-23T05:12:31.116Z,1.90
2022-12-23T05:16:13.014Z,2.15
2022-12-23T05:19:54.768Z,1.80
2022-12-23T05:23:36.529Z,1.80
2022-12-23T05:27:18.316Z,2.13
2022-12-23T05:31:00.833Z,2.15
2022-12-23T05:34:42.715Z,1.80
2022-12-23T05:38:25.145Z,2.25
2022-12-23T05:42:06.873Z,2.30
2022-12-23T05:45:55.019Z,2.45
2022-12-23T05:49:37.411Z,2.20
2022-12-23T05:53:20.242Z,2.42
2022-12-23T05:57:10.403Z,2.28
2022-12-23T06:00:52.758Z,2.22
2022-12-23T06:04:34.839Z,2.35
2022-12-23T06:08:16.597Z,2.50
2022-12-23T06:11:58.475Z,2.70
2022-12-23T06:15:40.337Z,2.60
2022-12-23T06:19:22.047Z,2.58
2022-12-23T06:23:11.504Z,2.60
2022-12-23T06:26:57.200Z,2.20
2022-12-23T06:30:42.508Z,2.45
2022-12-23T06:34:24.263Z,2.20
2022-12-23T06:38:10.419Z,1.90
2022-12-23T06:41:53.985Z,2.00
2022-12-23T06:45:35.695Z,2.00
2022-12-23T06:49:17.626Z,1.90
2022-12-23T06:52:59.450Z,1.95
2022-12-23T06:56:41.153Z,1.67
2022-12-23T07:00:23.052Z,1.95
2022-12-23T07:04:04.869Z,2.00
2022-12-23T07:07:46.621Z,1.73
2022-12-23T07:11:28.353Z,1.90
2022-12-23T07:15:11.648Z,1.98
2022-12-23T07:18:53.587Z,1.63
2022-12-23T07:22:35.289Z,1.40
2022-12-23T07:26:18.175Z,1.40
2022-12-23T07:29:59.873Z,1.40
2022-12-23T07:33:41.881Z,1.30
2022-12-23T07:37:23.637Z,1.20
2022-12-23T07:41:05.535Z,1.20
2022-12-23T07:44:47.581Z,1.48
2022-12-23T07:48:29.289Z,1.20
2022-12-23T07:52:11.038Z,1.30
2022-12-23T07:55:56.388Z,1.23
2022-12-23T07:59:38.593Z,1.20
2022-12-23T08:03:20.351Z,1.25
2022-12-23T08:07:02.135Z,1.50
2022-12-23T08:10:48.326Z,2.03
2022-12-23T08:14:30.472Z,1.90
2022-12-23T08:18:12.249Z,2.15
2022-12-23T08:21:53.986Z,2.42
2022-12-23T08:25:35.701Z,1.50
2022-12-23T08:29:17.533Z,2.28
2022-12-23T08:32:59.411Z,2.22
2022-12-23T08:36:41.237Z,2.28
2022-12-23T08:40:22.966Z,2.60
2022-12-23T08:44:04.856Z,2.72
2022-12-23T08:47:46.681Z,2.70
2022-12-23T08:51:28.776Z,2.55
2022-12-23T08:55:10.496Z,2.28
2022-12-23T08:58:53.888Z,2.42
2022-12-23T09:06:28.324Z,2.70
2022-12-23T09:13:53.087Z,2.53
2022-12-23T09:17:35.152Z,2.50
2022-12-23T09:21:20.417Z,2.78
2022-12-23T09:25:05.232Z,3.17
2022-12-23T09:28:47.416Z,2.53
2022-12-23T09:32:29.931Z,2.38
2022-12-23T09:36:11.667Z,2.70
2022-12-23T09:39:53.687Z,2.72
2022-12-23T09:43:59.781Z,2.90
2022-12-23T09:47:42.759Z,2.78
2022-12-23T09:51:24.555Z,2.33
2022-12-23T09:55:11.188Z,3.20
2022-12-23T09:59:25.295Z,2.30
2022-12-23T10:03:19.846Z,3.30
2022-12-23T10:07:33.805Z,2.88
2022-12-23T10:15:03.260Z,3.40
2022-12-23T10:18:57.537Z,3.17
2022-12-23T10:22:43.961Z,3.30
2022-12-23T10:26:45.976Z,2.83
2022-12-23T10:30:57.241Z,3.92
2022-12-23T10:34:46.807Z,2.60
2022-12-23T10:38:28.470Z,4.00
2022-12-23T10:42:37.132Z,3.85
2022-12-23T10:46:21.940Z,4.18
2022-12-23T10:50:25.356Z,5.75
2022-12-23T10:54:14.380Z,3.88
2022-12-23T10:58:03.530Z,3.80
2022-12-23T11:01:52.738Z,3.47
2022-12-23T11:05:35.289Z,5.70
2022-12-23T11:09:21.877Z,5.07
2022-12-23T11:13:03.687Z,5.03
2022-12-23T11:16:46.943Z,5.93
2022-12-23T11:20:30.208Z,4.65
2022-12-23T11:24:17.037Z,4.88
2022-12-23T11:28:10.932Z,7.15
2022-12-23T11:31:53.093Z,6.32
2022-12-23T11:35:37.530Z,6.57
2022-12-23T11:39:26.893Z,6.85
2022-12-23T11:43:16.252Z,5.20
2022-12-23T11:46:58.336Z,5.70
2022-12-23T11:50:40.864Z,5.78
2022-12-23T11:54:23.118Z,6.25
2022-12-23T11:58:05.115Z,5.20
2022-12-23T12:01:49.025Z,5.28
2022-12-23T12:05:40.714Z,4.95
2022-12-23T12:09:24.820Z,4.07
2022-12-23T12:13:29.440Z,4.38
2022-12-23T12:17:16.354Z,4.25
2022-12-23T12:21:07.037Z,4.53
2022-12-23T12:24:53.875Z,4.78
2022-12-23T12:28:42.931Z,4.05
2022-12-23T12:32:35.345Z,5.32
2022-12-23T12:36:46.071Z,3.83
2022-12-23T12:40:38.477Z,4.32
2022-12-23T12:44:59.932Z,3.95
2022-12-23T12:48:59.715Z,3.72
2022-12-23T12:52:42.961Z,3.95
2022-12-23T13:00:21.353Z,3.47
2022-12-23T13:04:25.637Z,2.40
2022-12-23T13:08:19.115Z,2.92
2022-12-23T13:16:33.599Z,2.38
2022-12-23T13:20:33.716Z,2.58
2022-12-23T13:24:21.374Z,3.42
2022-12-23T13:28:24.398Z,2.63
2022-12-23T13:32:37.502Z,2.95
2022-12-23T13:36:35.868Z,2.55
2022-12-23T13:40:44.282Z,2.58
2022-12-23T13:44:27.027Z,3.58
2022-12-23T13:48:11.566Z,3.97
2022-12-23T13:52:00.170Z,3.25
2022-12-23T13:56:00.765Z,3.17
2022-12-23T13:59:58.483Z,3.80
2022-12-23T14:03:47.657Z,2.88
2022-12-23T14:07:33.273Z,3.22
2022-12-23T14:11:32.079Z,3.90
2022-12-23T14:15:26.130Z,3.17
2022-12-23T14:19:35.491Z,4.10
2022-12-23T14:23:30.588Z,3.17
2022-12-23T14:27:31.638Z,3.17
2022-12-23T14:31:42.559Z,4.07
2022-12-23T14:35:38.595Z,4.53
2022-12-23T14:39:31.917Z,3.22
2022-12-23T14:43:23.087Z,4.82
2022-12-23T14:47:35.645Z,4.70
2022-12-23T14:51:24.744Z,5.38
2022-12-23T14:55:30.932Z,5.28
2022-12-23T14:59:24.111Z,4.90
2022-12-23T15:03:06.026Z,4.70
2022-12-23T15:06:54.435Z,4.20
2022-12-23T15:10:38.072Z,4.80
2022-12-23T15:14:31.522Z,5.10
2022-12-23T15:18:13.590Z,5.43
2022-12-23T15:22:17.921Z,7.22
2022-12-23T15:26:03.080Z,6.00
2022-12-23T15:29:49.207Z,5.38
2022-12-23T15:37:37.230Z,4.93
2022-12-23T15:41:18.967Z,5.25
2022-12-23T15:45:00.822Z,5.40
2022-12-23T15:48:43.167Z,5.28
2022-12-23T15:52:25.575Z,7.53
2022-12-23T15:56:10.519Z,5.70
2022-12-23T15:59:52.450Z,7.28
2022-12-23T16:03:38.958Z,6.45
2022-12-23T16:07:47.191Z,5.85
2022-12-23T16:11:58.708Z,7.40
2022-12-23T16:15:40.458Z,5.97
2022-12-23T16:20:14.767Z,7.13
2022-12-23T16:27:46.197Z,5.05
2022-12-23T16:31:28.210Z,6.28
2022-12-23T16:35:13.016Z,6.38
2022-12-23T16:39:06.864Z,6.25
2022-12-23T16:42:48.634Z,6.35
2022-12-23T16:46:39.386Z,7.55
2022-12-23T16:50:21.255Z,8.85
2022-12-23T16:54:02.982Z,7.05
2022-12-23T16:57:45.162Z,6.53
2022-12-23T17:01:43.157Z,5.45
2022-12-23T17:05:25.001Z,6.45
2022-12-23T17:09:07.977Z,5.75
2022-12-23T17:12:50.306Z,7.05
2022-12-23T17:16:32.563Z,7.10
2022-12-23T17:20:14.969Z,6.88
2022-12-23T17:24:07.376Z,7.07
2022-12-23T17:27:50.180Z,7.25
2022-12-23T17:31:33.991Z,8.73
2022-12-23T17:35:15.930Z,7.72
2022-12-23T17:38:57.750Z,10.25
2022-12-23T17:42:39.976Z,11.98
2022-12-23T17:46:21.978Z,9.23
2022-12-23T17:50:03.914Z,8.88
2022-12-23T17:53:50.288Z,7.70
2022-12-23T17:57:33.525Z,8.57
2022-12-23T18:01:25.293Z,7.45
2022-12-23T18:05:28.629Z,11.52
2022-12-23T18:09:10.374Z,9.25
2022-12-23T18:12:57.839Z,8.68
2022-12-23T18:16:39.698Z,13.73
2022-12-23T18:20:23.587Z,10.43
2022-12-23T18:24:05.784Z,10.23
2022-12-23T18:27:47.573Z,9.35
2022-12-23T18:31:29.864Z,9.30
2022-12-23T18:35:31.490Z,10.48
2022-12-23T18:39:13.190Z,9.63
2022-12-23T18:42:55.409Z,9.52
2022-12-23T18:46:37.156Z,10.48
2022-12-23T18:50:18.953Z,9.02
2022-12-23T18:54:00.660Z,9.75
2022-12-23T18:57:42.898Z,10.38
2022-12-23T19:01:24.729Z,9.15
2022-12-23T19:05:07.393Z,10.70
2022-12-23T19:08:49.170Z,8.90
2022-12-23T19:12:31.077Z,8.35
2022-12-23T19:16:15.248Z,8.18
2022-12-23T19:19:57.298Z,7.90
2022-12-23T19:23:42.721Z,10.13
2022-12-23T19:27:24.727Z,7.63
2022-12-23T19:31:14.744Z,7.75
2022-12-23T19:34:56.551Z,6.50
2022-12-23T19:38:38.419Z,6.63
2022-12-23T19:42:20.314Z,6.93
2022-12-23T19:46:05.128Z,7.22
2022-12-23T19:49:46.940Z,6.70
2022-12-23T19:53:29.330Z,8.82
2022-12-23T19:57:11.125Z,7.63
2022-12-23T20:00:53.096Z,7.72
2022-12-23T20:04:34.782Z,7.38
2022-12-23T20:08:16.715Z,6.30
2022-12-23T20:11:58.668Z,6.97
2022-12-23T20:15:40.409Z,7.43
2022-12-23T20:19:22.176Z,8.20
2022-12-23T20:23:03.907Z,6.50
2022-12-23T20:26:46.027Z,6.38
2022-12-23T20:30:27.817Z,6.90
2022-12-23T20:34:16.467Z,6.35
2022-12-23T20:37:58.188Z,7.13
2022-12-23T20:41:39.954Z,8.15
2022-12-23T20:45:21.674Z,6.80
2022-12-23T20:49:03.432Z,7.13
2022-12-23T20:52:45.194Z,8.82
2022-12-23T20:56:29.193Z,10.27
2022-12-23T21:00:12.040Z,10.02
2022-12-23T21:03:54.045Z,7.15
2022-12-23T21:07:35.806Z,7.13
2022-12-23T21:11:18.038Z,6.03
2022-12-23T21:14:59.723Z,8.38
2022-12-23T21:18:46.386Z,7.78
2022-12-23T21:22:28.100Z,7.47
2022-12-23T21:26:15.277Z,6.43
2022-12-23T21:29:57.065Z,6.53
2022-12-23T21:33:40.987Z,6.93
2022-12-23T21:37:22.763Z,6.40
2022-12-23T21:41:07.128Z,6.63
2022-12-23T21:44:48.909Z,7.13
2022-12-23T21:48:32.697Z,6.88
2022-12-23T21:52:14.499Z,6.32
2022-12-23T21:56:01.159Z,6.43
2022-12-23T21:59:43.041Z,6.28
2022-12-23T22:03:24.911Z,6.82
2022-12-23T22:07:06.689Z,8.80
2022-12-23T22:10:48.583Z,6.00
2022-12-23T22:14:30.322Z,5.95
2022-12-23T22:18:12.056Z,6.95
2022-12-23T22:21:53.801Z,8.15
2022-12-23T22:25:35.835Z,6.82
2022-12-23T22:29:17.763Z,8.32
2022-12-23T22:32:59.445Z,7.95
2022-12-23T22:36:41.628Z,5.45
2022-12-23T22:40:23.377Z,6.03
2022-12-23T22:44:05.393Z,5.88
2022-12-23T22:47:47.482Z,6.00
2022-12-23T22:51:31.299Z,5.90
2022-12-23T22:55:14.083Z,6.72
2022-12-23T22:58:56.282Z,5.13
2022-12-23T23:02:37.999Z,5.82
2022-12-23T23:06:19.726Z,5.93
2022-12-23T23:10:02.450Z,6.38
2022-12-23T23:13:44.773Z,5.65
2022-12-23T23:17:29.285Z,5.93
2022-12-23T23:21:14.077Z,4.95
2022-12-23T23:24:55.851Z,5.85
2022-12-23T23:28:39.959Z,5.57
2022-12-23T23:32:23.362Z,5.15
2022-12-23T23:36:06.724Z,5.53
2022-12-23T23:39:48.530Z,5.38
2022-12-23T23:43:30.324Z,6.18
2022-12-23T23:47:12.093Z,4.93
2022-12-23T23:51:01.864Z,4.80
2022-12-23T23:54:44.054Z,4.38
2022-12-23T23:58:25.776Z,5.03
